createdAt,value
2019-02-19T00:04:22.713Z,5.13
2019-02-19T00:14:26.759Z,3.80
2019-02-19T00:24:31.380Z,4.17
2019-02-19T00:34:35.434Z,4.90
2019-02-19T00:44:39.757Z,5.93
2019-02-19T00:54:44.002Z,6.70
2019-02-19T01:04:48.284Z,6.13
2019-02-19T01:14:52.065Z,5.83
2019-02-19T01:24:56.342Z,5.07
2019-02-19T01:35:00.250Z,6.73
2019-02-19T01:45:04.507Z,6.10
2019-02-19T01:55:08.394Z,6.40
2019-02-19T02:05:12.469Z,9.40
2019-02-19T02:15:16.252Z,10.37
2019-02-19T02:25:21.210Z,7.10
2019-02-19T02:35:25.449Z,9.90
2019-02-19T02:45:29.254Z,9.87
2019-02-19T02:55:33.365Z,10.87
2019-02-19T03:05:39.714Z,10.00
2019-02-19T03:15:43.765Z,12.23
2019-02-19T03:25:48.037Z,10.63
2019-02-19T03:35:52.301Z,13.03
2019-02-19T03:45:57.084Z,11.07
2019-02-19T03:56:01.201Z,11.33
2019-02-19T04:06:05.747Z,12.27
2019-02-19T04:16:10.120Z,11.47
2019-02-19T04:26:14.122Z,10.20
2019-02-19T04:36:18.046Z,9.57
2019-02-19T04:46:31.277Z,9.80
2019-02-19T04:56:28.304Z,8.77
2019-02-19T05:06:32.329Z,9.40
2019-02-19T05:16:40.824Z,10.50
2019-02-19T05:26:42.367Z,9.10
2019-02-19T05:36:46.666Z,10.77
2019-02-19T05:46:51.002Z,10.87
2019-02-19T05:56:55.302Z,12.53
2019-02-19T06:06:59.310Z,13.53
2019-02-19T06:17:03.629Z,12.37
2019-02-19T06:27:07.707Z,14.93
2019-02-19T06:37:11.833Z,14.50
2019-02-19T06:47:16.422Z,15.63
2019-02-19T06:57:20.199Z,14.77
2019-02-19T07:07:23.994Z,12.40
2019-02-19T07:17:27.774Z,13.10
2019-02-19T07:27:31.887Z,11.70
2019-02-19T07:37:55.129Z,14.07
2019-02-19T07:47:59.548Z,15.60
2019-02-19T07:58:03.310Z,12.60
2019-02-19T08:08:07.078Z,12.77
2019-02-19T08:18:11.147Z,10.70
2019-02-19T08:28:15.578Z,11.50
2019-02-19T08:38:19.914Z,11.90
2019-02-19T08:48:24.554Z,11.93
2019-02-19T08:58:29.498Z,13.13
2019-02-19T09:08:34.403Z,12.10
2019-02-19T09:18:39.035Z,11.83
2019-02-19T09:28:43.765Z,12.13
2019-02-19T09:38:48.522Z,10.90
2019-02-19T09:48:52.301Z,10.37
2019-02-19T09:58:56.691Z,8.70
2019-02-19T10:09:00.758Z,7.90
2019-02-19T10:19:05.470Z,9.67
2019-02-19T10:29:09.278Z,7.93
2019-02-19T10:39:13.318Z,7.60
2019-02-19T10:49:17.363Z,9.83
2019-02-19T10:59:21.742Z,8.47
2019-02-19T11:09:26.529Z,8.23
2019-02-19T11:19:30.914Z,8.63
2019-02-19T11:29:35.038Z,8.20
2019-02-19T11:39:39.370Z,9.10
2019-02-19T11:49:43.269Z,8.43
2019-02-19T11:59:47.860Z,6.73
2019-02-19T12:09:52.006Z,6.73
2019-02-19T12:19:55.766Z,6.90
2019-02-19T12:30:00.277Z,7.30
2019-02-19T12:40:04.711Z,7.20
2019-02-19T12:50:10.508Z,5.77
2019-02-19T13:00:15.934Z,6.70
2019-02-19T13:10:20.008Z,5.37
2019-02-19T13:20:24.038Z,8.20
2019-02-19T13:30:28.158Z,4.83
2019-02-19T13:40:32.225Z,5.57
2019-02-19T13:50:36.321Z,6.13
2019-02-19T14:00:41.934Z,5.10
2019-02-19T14:10:46.066Z,5.43
2019-02-19T14:21:07.614Z,4.50
2019-02-19T14:31:29.826Z,6.27
2019-02-19T14:42:06.120Z,3.10
2019-02-19T14:52:17.005Z,3.13
2019-02-19T15:02:40.286Z,2.80
2019-02-19T15:13:06.863Z,2.00
2019-02-19T15:23:29.094Z,2.43
2019-02-19T15:33:41.514Z,1.10
2019-02-19T15:44:04.111Z,1.77
2019-02-19T15:54:29.446Z,1.90
2019-02-19T16:05:04.104Z,3.07
2019-02-19T16:15:26.321Z,2.83
2019-02-19T16:25:48.347Z,3.13
2019-02-19T16:36:04.302Z,3.03
2019-02-19T16:46:26.447Z,3.10
2019-02-19T16:56:40.006Z,3.53
2019-02-19T17:06:54.406Z,2.83
2019-02-19T17:17:16.714Z,3.00
2019-02-19T17:27:39.026Z,2.87
2019-02-19T17:38:14.399Z,3.10
2019-02-19T17:48:21.732Z,3.63
2019-02-19T17:58:32.956Z,3.53
2019-02-19T18:08:59.389Z,3.03
2019-02-19T18:19:03.277Z,3.63
2019-02-19T18:29:07.083Z,3.37
2019-02-19T18:39:11.237Z,3.67
2019-02-19T18:49:15.007Z,3.60
2019-02-19T18:59:19.853Z,3.07
2019-02-19T19:09:24.940Z,2.70
2019-02-19T19:19:29.303Z,3.20
2019-02-19T19:29:33.831Z,4.07
2019-02-19T19:39:38.424Z,3.50
2019-02-19T19:49:42.590Z,2.73
2019-02-19T19:59:46.834Z,3.40
2019-02-19T20:09:50.603Z,3.00
2019-02-19T20:19:54.735Z,3.17
2019-02-19T20:29:59.027Z,2.90
2019-02-19T20:40:03.067Z,2.80
2019-02-19T20:50:07.697Z,2.70
2019-02-19T21:00:15.452Z,3.40
2019-02-19T21:10:20.139Z,4.00
2019-02-19T21:20:24.981Z,3.35
2019-02-19T21:30:43.066Z,4.40
2019-02-19T21:40:46.909Z,5.07
2019-02-19T21:50:50.670Z,3.40
2019-02-19T22:00:55.080Z,2.67
2019-02-19T22:10:59.814Z,4.30
2019-02-19T22:21:20.951Z,5.60
2019-02-19T22:31:25.473Z,4.57
2019-02-19T22:41:29.866Z,5.10
2019-02-19T22:51:34.327Z,5.40
2019-02-19T23:02:05.018Z,5.90
2019-02-19T23:12:09.070Z,7.33
2019-02-19T23:22:21.386Z,6.40
2019-02-19T23:32:20.009Z,7.23
2019-02-19T23:42:24.085Z,5.83
2019-02-19T23:52:30.513Z,6.50
